createdAt,value
2024-03-30T00:01:29.660Z,5
2024-03-30T00:06:39.910Z,6
2024-03-30T00:11:39.831Z,5
2024-03-30T00:16:39.953Z,4
2024-03-30T00:22:29.469Z,4
2024-03-30T00:27:29.658Z,6
2024-03-30T00:32:29.668Z,4
2024-03-30T00:37:29.811Z,4
2024-03-30T00:42:47.171Z,4
2024-03-30T00:47:46.902Z,5
2024-03-30T00:53:29.656Z,5
2024-03-30T00:58:29.687Z,5
2024-03-30T01:03:39.940Z,6
2024-03-30T01:08:39.949Z,6
2024-03-30T01:13:39.933Z,6
2024-03-30T01:18:40.050Z,5
2024-03-30T01:24:29.675Z,5
2024-03-30T01:29:29.707Z,5
2024-03-30T01:34:39.933Z,5
2024-03-30T01:39:39.944Z,4
2024-03-30T01:44:39.958Z,4
2024-03-30T01:50:29.685Z,4
2024-03-30T01:55:34.147Z,4
2024-03-30T02:00:39.942Z,4
2024-03-30T02:05:39.980Z,6
2024-03-30T02:11:29.683Z,5
2024-03-30T02:16:39.939Z,5
2024-03-30T02:22:29.440Z,5
2024-03-30T02:27:29.721Z,5
2024-03-30T02:32:29.835Z,5
2024-03-30T02:37:39.707Z,6
2024-03-30T02:42:39.804Z,6
2024-03-30T02:48:29.531Z,6
2024-03-30T02:53:39.742Z,5
2024-03-30T02:58:39.743Z,7
2024-03-30T03:03:40.227Z,5
2024-03-30T03:09:29.476Z,5
2024-03-30T03:14:39.932Z,7
2024-03-30T03:20:29.472Z,5
2024-03-30T03:25:40.378Z,5
2024-03-30T03:31:29.473Z,5
2024-03-30T03:36:29.493Z,5
2024-03-30T03:41:29.493Z,6
2024-03-30T03:46:29.601Z,5
2024-03-30T03:51:29.677Z,4
2024-03-30T04:02:29.770Z,4
2024-03-30T04:07:39.962Z,6
2024-03-30T04:13:39.760Z,5
2024-03-30T04:19:29.716Z,3
2024-03-30T04:24:39.762Z,5
2024-03-30T04:29:39.921Z,4
2024-03-30T04:35:29.710Z,4
2024-03-30T04:40:39.939Z,4
2024-03-30T04:46:29.700Z,5
2024-03-30T04:51:39.719Z,5
2024-03-30T04:56:39.965Z,5
2024-03-30T05:02:29.509Z,4
2024-03-30T05:07:29.682Z,3
2024-03-30T05:12:29.708Z,5
2024-03-30T05:17:29.712Z,5
2024-03-30T05:22:39.990Z,3
2024-03-30T05:27:39.984Z,3
2024-03-30T05:32:40.030Z,5
2024-03-30T05:38:29.661Z,3
2024-03-30T05:43:39.970Z,5
2024-03-30T05:49:29.436Z,5
2024-03-30T05:54:29.717Z,4
2024-03-30T05:59:39.975Z,4
2024-03-30T06:04:39.984Z,6
2024-03-30T06:10:29.678Z,5
2024-03-30T06:15:39.782Z,6
2024-03-30T06:20:39.966Z,4
2024-03-30T06:26:29.475Z,5
2024-03-30T06:36:29.696Z,4
2024-03-30T06:41:29.694Z,5
2024-03-30T06:46:39.767Z,5
2024-03-30T06:51:39.949Z,7
2024-03-30T06:56:40.080Z,5
2024-03-30T07:02:29.532Z,5
2024-03-30T07:07:39.952Z,8
2024-03-30T07:12:39.960Z,6
2024-03-30T07:17:39.960Z,5
2024-03-30T07:23:29.712Z,6
2024-03-30T07:28:39.961Z,4
2024-03-30T07:34:29.676Z,8
2024-03-30T07:39:29.698Z,10
2024-03-30T07:44:39.970Z,6
2024-03-30T07:49:39.968Z,6
2024-03-30T07:55:29.684Z,6
2024-03-30T08:00:29.725Z,8
2024-03-30T08:05:29.703Z,12
2024-03-30T08:10:40.028Z,8
2024-03-30T08:15:40.261Z,7
2024-03-30T08:21:29.693Z,8
2024-03-30T08:26:36.384Z,7
2024-03-30T08:31:39.734Z,13
2024-03-30T08:36:39.770Z,10
2024-03-30T08:42:29.506Z,9
2024-03-30T08:47:40.062Z,12
2024-03-30T08:53:29.539Z,8
2024-03-30T08:58:29.545Z,10
2024-03-30T09:03:39.755Z,8
2024-03-30T09:09:31.466Z,11
2024-03-30T09:14:29.512Z,9
2024-03-30T09:19:39.796Z,12
2024-03-30T09:25:29.499Z,13
2024-03-30T09:30:39.789Z,7
2024-03-30T09:35:39.860Z,10
2024-03-30T09:41:29.505Z,12
2024-03-30T09:46:29.590Z,11
2024-03-30T09:51:39.742Z,10
2024-03-30T09:56:39.811Z,14
2024-03-30T10:01:39.877Z,12
2024-03-30T10:06:39.880Z,10
2024-03-30T10:12:29.543Z,16
2024-03-30T10:17:29.839Z,11
2024-03-30T10:22:39.988Z,12
2024-03-30T10:28:29.724Z,13
2024-03-30T10:33:39.997Z,16
2024-03-30T10:39:29.496Z,17
2024-03-30T10:44:29.715Z,17
2024-03-30T10:49:40.023Z,17
2024-03-30T10:55:29.719Z,20
2024-03-30T11:06:29.748Z,18
2024-03-30T11:11:39.989Z,23
2024-03-30T11:16:40.019Z,17
2024-03-30T11:22:29.558Z,19
2024-03-30T11:28:29.533Z,18
2024-03-30T11:33:29.761Z,15
2024-03-30T11:38:41.657Z,24
2024-03-30T11:43:39.807Z,22
2024-03-30T11:48:40.023Z,25
2024-03-30T11:54:29.723Z,21
2024-03-30T11:59:40.054Z,25
2024-03-30T12:05:29.520Z,30
2024-03-30T12:11:40.055Z,31
2024-03-30T12:17:29.780Z,25
2024-03-30T12:22:39.816Z,27
2024-03-30T12:27:40.048Z,35
2024-03-30T12:33:29.750Z,27
2024-03-30T12:38:29.802Z,32
2024-03-30T12:43:39.825Z,29
2024-03-30T12:49:29.812Z,29
2024-03-30T12:54:39.888Z,33
2024-03-30T12:59:40.168Z,27
2024-03-30T13:05:29.747Z,29
2024-03-30T13:10:29.844Z,35
2024-03-30T13:15:40.042Z,34
2024-03-30T13:20:40.080Z,36
2024-03-30T13:26:29.788Z,32
2024-03-30T13:31:39.861Z,33
2024-03-30T13:41:41.281Z,33
2024-03-30T13:46:40.050Z,28
2024-03-30T13:52:29.766Z,32
2024-03-30T14:02:40.044Z,24
2024-03-30T14:08:29.774Z,22
2024-03-30T14:13:29.783Z,22
2024-03-30T14:18:40.063Z,22
2024-03-30T14:23:40.134Z,21
2024-03-30T14:29:29.771Z,14
2024-03-30T14:34:39.907Z,19
2024-03-30T14:39:40.849Z,14
2024-03-30T14:45:29.827Z,16
2024-03-30T14:50:29.844Z,14
2024-03-30T14:55:29.899Z,19
2024-03-30T15:00:40.187Z,17
2024-03-30T15:06:30.341Z,15
2024-03-30T15:11:29.582Z,17
2024-03-30T15:16:39.866Z,15
2024-03-30T15:21:39.943Z,15
2024-03-30T15:27:29.524Z,10
2024-03-30T15:32:29.577Z,13
2024-03-30T15:37:29.609Z,12
2024-03-30T15:42:39.881Z,16
2024-03-30T15:47:40.574Z,14
2024-03-30T15:53:29.609Z,14
2024-03-30T15:58:29.621Z,12
2024-03-30T16:03:39.890Z,14
2024-03-30T16:09:29.802Z,10
2024-03-30T16:14:39.924Z,14
2024-03-30T16:19:40.076Z,12
2024-03-30T16:24:40.096Z,11
2024-03-30T16:30:29.830Z,16
2024-03-30T16:35:40.069Z,15
2024-03-30T16:40:40.082Z,14
2024-03-30T16:45:40.088Z,16
2024-03-30T16:50:40.103Z,16
2024-03-30T16:55:40.087Z,16
2024-03-30T17:01:29.909Z,17
2024-03-30T17:06:39.876Z,15
2024-03-30T17:11:39.893Z,30
2024-03-30T17:17:29.820Z,27
2024-03-30T17:22:41.624Z,20
2024-03-30T17:28:29.801Z,27
2024-03-30T17:33:29.833Z,25
2024-03-30T17:38:39.873Z,21
2024-03-30T17:43:40.113Z,20
2024-03-30T17:49:29.800Z,19
2024-03-30T17:54:29.810Z,27
2024-03-30T17:59:29.867Z,19
2024-03-30T18:04:40.055Z,28
2024-03-30T18:09:40.108Z,22
2024-03-30T18:14:40.106Z,36
2024-03-30T18:19:40.120Z,32
2024-03-30T18:25:29.840Z,30
2024-03-30T18:30:40.115Z,30
2024-03-30T18:36:29.837Z,27
2024-03-30T18:41:29.839Z,27
2024-03-30T18:46:40.098Z,26
2024-03-30T18:52:29.680Z,26
2024-03-30T18:57:29.828Z,26
2024-03-30T19:02:39.949Z,29
2024-03-30T19:07:40.105Z,20
2024-03-30T19:13:29.639Z,27
2024-03-30T19:18:29.830Z,27
2024-03-30T19:23:29.865Z,28
2024-03-30T19:28:39.881Z,19
2024-03-30T19:33:40.118Z,20
2024-03-30T19:38:40.122Z,21
2024-03-30T19:44:29.918Z,19
2024-03-30T19:49:40.121Z,16
2024-03-30T19:55:29.675Z,20
2024-03-30T20:00:29.685Z,15
2024-03-30T20:05:29.808Z,17
2024-03-30T20:10:29.831Z,19
2024-03-30T20:15:39.922Z,17
2024-03-30T20:20:40.112Z,14
2024-03-30T20:26:29.833Z,17
2024-03-30T20:31:40.112Z,9
2024-03-30T20:42:29.842Z,11
2024-03-30T20:47:40.078Z,14
2024-03-30T20:53:29.791Z,11
2024-03-30T20:58:29.799Z,16
2024-03-30T21:03:40.092Z,12
2024-03-30T21:09:29.671Z,13
2024-03-30T21:14:39.909Z,12
2024-03-30T21:25:29.743Z,13
2024-03-30T21:30:39.932Z,16
2024-03-30T21:36:29.613Z,20
2024-03-30T21:41:29.600Z,24
2024-03-30T21:46:29.642Z,13
2024-03-30T21:51:29.729Z,12
2024-03-30T22:02:29.580Z,12
2024-03-30T22:07:29.666Z,10
2024-03-30T22:12:39.895Z,14
2024-03-30T22:17:39.966Z,12
2024-03-30T22:22:39.921Z,12
2024-03-30T22:27:40.005Z,13
2024-03-30T22:32:40.118Z,15
2024-03-30T22:38:29.912Z,25
2024-03-30T22:43:40.139Z,12
2024-03-30T22:49:29.852Z,11
2024-03-30T22:54:40.103Z,13
2024-03-30T23:00:29.657Z,16
2024-03-30T23:05:29.868Z,17
2024-03-30T23:10:40.123Z,14
2024-03-30T23:16:29.816Z,14
2024-03-30T23:21:29.846Z,13
2024-03-30T23:42:29.848Z,16
2024-03-30T23:47:40.096Z,22
2024-03-30T23:53:29.864Z,17
2024-03-30T23:58:39.941Z,21
